Walcott, Canada
Current Conditions -  °F | °C
As of 5:00 PM on Monday 22 Dec 2014 (Local Time) from CYYD Reporting Station
Scattered Clouds Scattered Clouds  
Wind Chill: 23°   Ceiling: Unl
Heat Index: 28°   Visibility: 25mi
Dew Point: 28°   Wind: 5mph
Humidity: 100%   Direction: 330°NNW
Pressure: 30.19"   Gusts: NA
Location:  54.52°N, 126.85°W
Report Text: CYYD 230100Z 33004KT 300V360 25SM FEW055 SCT200 M02/M02 A3019 RMK SC2CI2 SLP246
Loading
Personal Weather Stations






























Interactive Weather Map New forecast layout! Learn more

10-Day Weather Forecast

Advertisements
Track Severe Weather on mobile